Time,TemperatureF,DewpointF,PressureIn,WindDirection,WindDirectionDegrees,WindSpeedMPH,WindSpeedGustMPH,Humidity,HourlyPrecipIn,Conditions,Clouds,dailyrainin,SoftwareType,DateUTC
2013-05-25 00:00:00,40.0,38.0,30.03,East,86,2.0,12.0,92,-99.99,,,-99.99,,2013-05-25 04:00:00,
2013-05-25 00:23:00,40.0,38.0,30.03,East,86,2.0,12.0,92,-99.99,,,-99.99,,2013-05-25 04:23:00,
2013-05-25 00:33:00,40.0,38.0,30.03,East,86,2.0,12.0,92,-99.99,,,-99.99,,2013-05-25 04:33:00,
2013-05-25 00:43:00,40.0,38.0,30.03,East,86,2.0,12.0,92,-99.99,,,-99.99,,2013-05-25 04:43:00,
2013-05-25 00:53:00,40.0,38.0,30.03,East,86,2.0,12.0,92,-99.99,,,-99.99,,2013-05-25 04:53:00,
2013-05-25 01:00:00,40.0,37.0,30.03,NE,55,7.0,19.0,90,-99.99,,,-99.99,,2013-05-25 05:00:00,
2013-05-25 01:22:00,40.0,37.0,30.03,NE,55,7.0,19.0,90,-99.99,,,-99.99,,2013-05-25 05:22:00,
2013-05-25 01:32:00,40.0,37.0,30.03,NE,55,7.0,19.0,90,-99.99,,,-99.99,,2013-05-25 05:32:00,
2013-05-25 01:43:00,40.0,37.0,30.03,NE,55,7.0,19.0,90,-99.99,,,-99.99,,2013-05-25 05:43:00,
2013-05-25 01:52:00,40.0,37.0,30.03,NE,55,7.0,19.0,90,-99.99,,,-99.99,,2013-05-25 05:52:00,
2013-05-25 02:00:00,40.0,37.0,30.00,NE,36,3.0,12.0,91,-99.99,,,-99.99,,2013-05-25 06:00:00,
2013-05-25 02:32:00,40.0,37.0,30.00,NE,36,3.0,12.0,91,-99.99,,,-99.99,,2013-05-25 06:32:00,
2013-05-25 02:42:00,40.0,37.0,30.00,NE,36,3.0,12.0,91,-99.99,,,-99.99,,2013-05-25 06:42:00,
2013-05-25 02:52:00,40.0,37.0,30.00,NE,36,3.0,12.0,91,-99.99,,,-99.99,,2013-05-25 06:52:00,
2013-05-25 03:00:00,40.0,38.0,29.97,ESE,102,3.0,10.0,92,-99.99,,,-99.99,,2013-05-25 07:00:00,
2013-05-25 03:32:00,40.0,38.0,29.97,ESE,102,3.0,10.0,92,-99.99,,,-99.99,,2013-05-25 07:32:00,
2013-05-25 03:42:00,40.0,38.0,29.97,ESE,102,3.0,10.0,92,-99.99,,,-99.99,,2013-05-25 07:42:00,
2013-05-25 03:52:00,40.0,38.0,29.97,ESE,102,3.0,10.0,92,-99.99,,,-99.99,,2013-05-25 07:52:00,
2013-05-25 04:00:00,41.0,37.0,29.97,ESE,110,4.0,11.0,86,-99.99,,,-99.99,,2013-05-25 08:00:00,
2013-05-25 04:23:00,41.0,37.0,29.97,ESE,110,4.0,11.0,86,-99.99,,,-99.99,,2013-05-25 08:23:00,
2013-05-25 04:32:00,41.0,37.0,29.97,ESE,110,4.0,11.0,86,-99.99,,,-99.99,,2013-05-25 08:32:00,
2013-05-25 04:42:00,41.0,37.0,29.97,ESE,110,4.0,11.0,86,-99.99,,,-99.99,,2013-05-25 08:42:00,
2013-05-25 04:52:00,41.0,37.0,29.97,ESE,110,4.0,11.0,86,-99.99,,,-99.99,,2013-05-25 08:52:00,
2013-05-25 05:00:00,41.0,37.0,29.97,SSE,162,5.0,13.0,85,-99.99,,,-99.99,,2013-05-25 09:00:00,
2013-05-25 05:33:00,41.0,37.0,29.97,SSE,162,5.0,13.0,85,-99.99,,,-99.99,,2013-05-25 09:33:00,
2013-05-25 05:43:00,41.0,37.0,29.97,SSE,162,5.0,13.0,85,-99.99,,,-99.99,,2013-05-25 09:43:00,
2013-05-25 05:53:00,41.0,37.0,29.97,SSE,162,5.0,13.0,85,-99.99,,,-99.99,,2013-05-25 09:53:00,
2013-05-25 06:00:00,41.0,37.0,29.97,ESE,108,3.0,12.0,85,-99.99,,,-99.99,,2013-05-25 10:00:00,
2013-05-25 06:23:00,41.0,37.0,29.97,ESE,108,3.0,12.0,85,-99.99,,,-99.99,,2013-05-25 10:23:00,
2013-05-25 06:33:00,41.0,37.0,29.97,ESE,108,3.0,12.0,85,-99.99,,,-99.99,,2013-05-25 10:33:00,
2013-05-25 06:42:00,41.0,37.0,29.97,ESE,108,3.0,12.0,85,-99.99,,,-99.99,,2013-05-25 10:42:00,
2013-05-25 06:52:00,41.0,37.0,29.97,ESE,108,3.0,12.0,85,-99.99,,,-99.99,,2013-05-25 10:52:00,
2013-05-25 07:00:00,42.0,39.0,30.00,South,179,7.0,11.0,87,-99.99,,,-99.99,,2013-05-25 11:00:00,
2013-05-25 07:22:00,42.0,39.0,30.00,South,179,7.0,11.0,87,-99.99,,,-99.99,,2013-05-25 11:22:00,
2013-05-25 07:32:00,42.0,39.0,30.00,South,179,7.0,11.0,87,-99.99,,,-99.99,,2013-05-25 11:32:00,
2013-05-25 07:42:00,42.0,39.0,30.00,South,179,7.0,11.0,87,-99.99,,,-99.99,,2013-05-25 11:42:00,
2013-05-25 07:52:00,42.0,39.0,30.00,South,179,7.0,11.0,87,-99.99,,,-99.99,,2013-05-25 11:52:00,
2013-05-25 08:00:00,45.0,38.0,30.00,NW,310,0.0,12.0,78,-99.99,,,-99.99,,2013-05-25 12:00:00,
2013-05-25 08:22:00,45.0,38.0,30.00,NW,310,0.0,12.0,78,-99.99,,,-99.99,,2013-05-25 12:22:00,
2013-05-25 08:32:00,45.0,38.0,30.00,NW,310,0.0,12.0,78,-99.99,,,-99.99,,2013-05-25 12:32:00,
2013-05-25 08:42:00,45.0,38.0,30.00,NW,310,0.0,12.0,78,-99.99,,,-99.99,,2013-05-25 12:42:00,
2013-05-25 08:52:00,45.0,38.0,30.00,NW,310,0.0,12.0,78,-99.99,,,-99.99,,2013-05-25 12:52:00,
2013-05-25 09:00:00,47.0,39.0,30.00,East,96,11.0,18.0,73,-99.99,,,-99.99,,2013-05-25 13:00:00,
2013-05-25 09:22:00,47.0,39.0,30.00,East,96,11.0,18.0,73,-99.99,,,-99.99,,2013-05-25 13:22:00,
2013-05-25 09:32:00,47.0,39.0,30.00,East,96,11.0,18.0,73,-99.99,,,-99.99,,2013-05-25 13:32:00,
2013-05-25 09:42:00,47.0,39.0,30.00,East,96,11.0,18.0,73,-99.99,,,-99.99,,2013-05-25 13:42:00,
2013-05-25 09:52:00,47.0,39.0,30.00,East,96,11.0,18.0,73,-99.99,,,-99.99,,2013-05-25 13:52:00,
2013-05-25 10:00:00,50.0,39.0,30.00,ENE,59,17.0,23.0,66,-99.99,,,-99.99,,2013-05-25 14:00:00,
2013-05-25 10:22:00,50.0,39.0,30.00,ENE,59,17.0,23.0,66,-99.99,,,-99.99,,2013-05-25 14:22:00,
2013-05-25 10:32:00,50.0,39.0,30.00,ENE,59,17.0,23.0,66,-99.99,,,-99.99,,2013-05-25 14:32:00,
2013-05-25 10:42:00,50.0,39.0,30.00,ENE,59,17.0,23.0,66,-99.99,,,-99.99,,2013-05-25 14:42:00,
2013-05-25 10:52:00,50.0,39.0,30.00,ENE,59,17.0,23.0,66,-99.99,,,-99.99,,2013-05-25 14:52:00,
2013-05-25 11:00:00,53.0,40.0,29.97,SSW,213,8.0,28.0,60,-99.99,,,-99.99,,2013-05-25 15:00:00,
2013-05-25 11:22:00,53.0,40.0,29.97,SSW,213,8.0,28.0,60,-99.99,,,-99.99,,2013-05-25 15:22:00,
2013-05-25 11:33:00,53.0,40.0,29.97,SSW,213,8.0,28.0,60,-99.99,,,-99.99,,2013-05-25 15:33:00,
2013-05-25 11:43:00,53.0,40.0,29.97,SSW,213,8.0,28.0,60,-99.99,,,-99.99,,2013-05-25 15:43:00,
2013-05-25 11:53:00,53.0,40.0,29.97,SSW,213,8.0,28.0,60,-99.99,,,-99.99,,2013-05-25 15:53:00,
2013-05-25 12:00:00,52.0,36.0,30.00,East,82,8.0,30.0,55,-99.99,,,-99.99,,2013-05-25 16:00:00,
2013-05-25 12:33:00,52.0,36.0,30.00,East,82,8.0,30.0,55,-99.99,,,-99.99,,2013-05-25 16:33:00,
2013-05-25 12:42:00,52.0,36.0,30.00,East,82,8.0,30.0,55,-99.99,,,-99.99,,2013-05-25 16:42:00,
2013-05-25 12:52:00,52.0,36.0,30.00,East,82,8.0,30.0,55,-99.99,,,-99.99,,2013-05-25 16:52:00,
2013-05-25 13:00:00,53.0,37.0,30.00,SSE,160,1.0,28.0,55,-99.99,,,-99.99,,2013-05-25 17:00:00,
2013-05-25 13:33:00,53.0,37.0,30.00,SSE,160,1.0,28.0,55,-99.99,,,-99.99,,2013-05-25 17:33:00,
2013-05-25 13:42:00,53.0,37.0,30.00,SSE,160,1.0,28.0,55,-99.99,,,-99.99,,2013-05-25 17:42:00,
2013-05-25 13:52:00,53.0,37.0,30.00,SSE,160,1.0,28.0,55,-99.99,,,-99.99,,2013-05-25 17:52:00,
2013-05-25 14:00:00,54.0,36.0,30.00,ESE,105,5.0,14.0,50,-99.99,,,-99.99,,2013-05-25 18:00:00,
2013-05-25 14:22:00,54.0,36.0,30.00,ESE,105,5.0,14.0,50,-99.99,,,-99.99,,2013-05-25 18:22:00,
2013-05-25 14:32:00,54.0,36.0,30.00,ESE,105,5.0,14.0,50,-99.99,,,-99.99,,2013-05-25 18:32:00,
2013-05-25 14:42:00,54.0,36.0,30.00,ESE,105,5.0,14.0,50,-99.99,,,-99.99,,2013-05-25 18:42:00,
2013-05-25 14:52:00,54.0,36.0,30.00,ESE,105,5.0,14.0,50,-99.99,,,-99.99,,2013-05-25 18:52:00,
2013-05-25 15:00:00,55.0,39.0,29.97,SE,142,6.0,23.0,55,-99.99,,,-99.99,,2013-05-25 19:00:00,
2013-05-25 15:22:00,55.0,39.0,29.97,SE,142,6.0,23.0,55,-99.99,,,-99.99,,2013-05-25 19:22:00,
2013-05-25 15:32:00,55.0,39.0,29.97,SE,142,6.0,23.0,55,-99.99,,,-99.99,,2013-05-25 19:32:00,
2013-05-25 15:42:00,55.0,39.0,29.97,SE,142,6.0,23.0,55,-99.99,,,-99.99,,2013-05-25 19:42:00,
2013-05-25 15:52:00,55.0,39.0,29.97,SE,142,6.0,23.0,55,-99.99,,,-99.99,,2013-05-25 19:52:00,
2013-05-25 16:00:00,56.0,32.0,29.97,SE,140,4.0,24.0,40,-99.99,,,-99.99,,2013-05-25 20:00:00,
2013-05-25 16:22:00,56.0,32.0,29.97,SE,140,4.0,24.0,40,-99.99,,,-99.99,,2013-05-25 20:22:00,
2013-05-25 16:32:00,56.0,32.0,29.97,SE,140,4.0,24.0,40,-99.99,,,-99.99,,2013-05-25 20:32:00,
2013-05-25 16:42:00,56.0,32.0,29.97,SE,140,4.0,24.0,40,-99.99,,,-99.99,,2013-05-25 20:42:00,
2013-05-25 16:52:00,56.0,32.0,29.97,SE,140,4.0,24.0,40,-99.99,,,-99.99,,2013-05-25 20:52:00,
2013-05-25 17:00:00,56.0,32.0,29.97,SE,132,4.0,18.0,40,-99.99,,,-99.99,,2013-05-25 21:00:00,
2013-05-25 17:22:00,56.0,32.0,29.97,SE,132,4.0,18.0,40,-99.99,,,-99.99,,2013-05-25 21:22:00,
2013-05-25 17:33:00,56.0,32.0,29.97,SE,132,4.0,18.0,40,-99.99,,,-99.99,,2013-05-25 21:33:00,
2013-05-25 17:43:00,56.0,32.0,29.97,SE,132,4.0,18.0,40,-99.99,,,-99.99,,2013-05-25 21:43:00,
2013-05-25 17:53:00,56.0,32.0,29.97,SE,132,4.0,18.0,40,-99.99,,,-99.99,,2013-05-25 21:53:00,
2013-05-25 18:00:00,53.0,32.0,30.00,ESE,110,5.0,16.0,45,-99.99,,,-99.99,,2013-05-25 22:00:00,
2013-05-25 18:33:00,53.0,32.0,30.00,ESE,110,5.0,16.0,45,-99.99,,,-99.99,,2013-05-25 22:33:00,
2013-05-25 18:42:00,53.0,32.0,30.00,ESE,110,5.0,16.0,45,-99.99,,,-99.99,,2013-05-25 22:42:00,
2013-05-25 18:52:00,53.0,32.0,30.00,ESE,110,5.0,16.0,45,-99.99,,,-99.99,,2013-05-25 22:52:00,
2013-05-25 19:00:00,52.0,30.0,30.03,SSE,166,6.0,16.0,43,-99.99,,,-99.99,,2013-05-25 23:00:00,
2013-05-25 19:22:00,52.0,30.0,30.03,SSE,166,6.0,16.0,43,-99.99,,,-99.99,,2013-05-25 23:22:00,
2013-05-25 19:32:00,52.0,30.0,30.03,SSE,166,6.0,16.0,43,-99.99,,,-99.99,,2013-05-25 23:32:00,
2013-05-25 19:42:00,52.0,30.0,30.03,SSE,166,6.0,16.0,43,-99.99,,,-99.99,,2013-05-25 23:42:00,
2013-05-25 19:53:00,52.0,30.0,30.03,SSE,166,6.0,16.0,43,-99.99,,,-99.99,,2013-05-25 23:53:00,
2013-05-25 20:00:00,52.0,33.0,30.03,SE,125,5.0,16.0,49,-99.99,,,-99.99,,2013-05-26 00:00:00,
2013-05-25 20:32:00,52.0,33.0,30.03,SE,125,5.0,16.0,49,-99.99,,,-99.99,,2013-05-26 00:32:00,
2013-05-25 20:43:00,52.0,33.0,30.03,SE,125,5.0,16.0,49,-99.99,,,-99.99,,2013-05-26 00:43:00,
2013-05-25 20:53:00,52.0,33.0,30.03,SE,125,5.0,16.0,49,-99.99,,,-99.99,,2013-05-26 00:53:00,
2013-05-25 21:00:00,51.0,32.0,30.06,ENE,75,4.0,16.0,49,-99.99,,,-99.99,,2013-05-26 01:00:00,
2013-05-25 21:21:00,51.0,32.0,30.06,ENE,75,4.0,16.0,49,-99.99,,,-99.99,,2013-05-26 01:21:00,
2013-05-25 21:32:00,51.0,32.0,30.06,ENE,75,4.0,16.0,49,-99.99,,,-99.99,,2013-05-26 01:32:00,
2013-05-25 21:42:00,51.0,32.0,30.06,ENE,75,4.0,16.0,49,-99.99,,,-99.99,,2013-05-26 01:42:00,
2013-05-25 21:53:00,51.0,32.0,30.06,ENE,75,4.0,16.0,49,-99.99,,,-99.99,,2013-05-26 01:53:00,
2013-05-25 22:00:00,50.0,32.0,30.06,SSE,158,5.0,11.0,51,-99.99,,,-99.99,,2013-05-26 02:00:00,
2013-05-25 22:22:00,50.0,32.0,30.06,SSE,158,5.0,11.0,51,-99.99,,,-99.99,,2013-05-26 02:22:00,
2013-05-25 22:32:00,50.0,32.0,30.06,SSE,158,5.0,11.0,51,-99.99,,,-99.99,,2013-05-26 02:32:00,
2013-05-25 22:42:00,50.0,32.0,30.06,SSE,158,5.0,11.0,51,-99.99,,,-99.99,,2013-05-26 02:42:00,
2013-05-25 22:52:00,50.0,32.0,30.06,SSE,158,5.0,11.0,51,-99.99,,,-99.99,,2013-05-26 02:52:00,
2013-05-25 23:00:00,50.0,34.0,30.06,SW,224,5.0,15.0,54,-99.99,,,-99.99,,2013-05-26 03:00:00,
2013-05-25 23:33:00,50.0,34.0,30.06,SW,224,5.0,15.0,54,-99.99,,,-99.99,,2013-05-26 03:33:00,
2013-05-25 23:43:00,50.0,34.0,30.06,SW,224,5.0,15.0,54,-99.99,,,-99.99,,2013-05-26 03:43:00,
2013-05-25 23:53:00,50.0,34.0,30.06,SW,224,5.0,15.0,54,-99.99,,,-99.99,,2013-05-26 03:53:00,